createdAt,value
2022-10-03T00:01:44.995Z,8.00
2022-10-03T00:04:49.156Z,8.00
2022-10-03T00:08:06.344Z,8.10
2022-10-03T00:11:30.172Z,8.00
2022-10-03T00:14:57.340Z,7.90
2022-10-03T00:17:53.137Z,7.90
2022-10-03T00:21:11.237Z,7.90
2022-10-03T00:24:36.153Z,7.90
2022-10-03T00:27:51.424Z,7.80
2022-10-03T00:30:32.317Z,7.90
2022-10-03T00:33:57.423Z,8.00
2022-10-03T00:36:57.359Z,8.00
2022-10-03T00:40:07.284Z,7.90
2022-10-03T00:43:03.185Z,7.90
2022-10-03T00:46:24.494Z,7.80
2022-10-03T00:49:39.295Z,7.70
2022-10-03T00:52:19.606Z,7.70
2022-10-03T00:55:11.148Z,7.60
2022-10-03T00:58:26.055Z,7.60
2022-10-03T01:01:32.169Z,7.70
2022-10-03T01:04:51.455Z,7.70
2022-10-03T01:08:13.198Z,7.50
2022-10-03T01:11:26.150Z,7.50
2022-10-03T01:14:39.095Z,7.60
2022-10-03T01:17:36.669Z,7.50
2022-10-03T01:21:19.475Z,7.60
2022-10-03T01:24:23.568Z,7.60
2022-10-03T01:30:50.062Z,7.50
2022-10-03T01:33:37.171Z,7.40
2022-10-03T01:36:41.496Z,7.40
2022-10-03T01:39:57.157Z,7.40
2022-10-03T01:43:03.843Z,7.40
2022-10-03T01:46:49.824Z,7.50
2022-10-03T01:49:59.938Z,7.60
2022-10-03T01:53:13.183Z,7.70
2022-10-03T01:56:32.851Z,7.70
2022-10-03T01:59:37.168Z,7.80
2022-10-03T02:02:42.068Z,7.80
2022-10-03T02:05:45.141Z,7.80
2022-10-03T02:08:45.865Z,7.90
2022-10-03T02:11:48.119Z,7.90
2022-10-03T02:14:46.104Z,7.90
2022-10-03T02:18:06.239Z,8.00
2022-10-03T02:21:38.355Z,8.00
2022-10-03T02:24:27.326Z,8.10
2022-10-03T02:27:23.352Z,8.10
2022-10-03T02:30:37.227Z,8.20
2022-10-03T02:33:52.378Z,8.20
2022-10-03T02:37:34.718Z,8.30
2022-10-03T02:40:50.376Z,8.30
2022-10-03T02:44:15.168Z,8.30
2022-10-03T02:47:17.853Z,8.40
2022-10-03T02:50:55.236Z,8.40
2022-10-03T02:53:46.289Z,8.50
2022-10-03T02:57:13.379Z,8.50
2022-10-03T02:59:52.344Z,8.50
2022-10-03T03:03:32.121Z,8.50
2022-10-03T03:06:20.846Z,8.40
2022-10-03T03:09:30.155Z,8.40
2022-10-03T03:12:50.854Z,8.20
2022-10-03T03:16:06.230Z,8.10
2022-10-03T03:19:49.170Z,8.00
2022-10-03T03:23:02.969Z,7.90
2022-10-03T03:26:00.988Z,7.80
2022-10-03T03:29:04.176Z,7.70
2022-10-03T03:32:22.050Z,7.60
2022-10-03T03:35:55.150Z,7.50
2022-10-03T03:38:58.409Z,7.50
2022-10-03T03:42:35.659Z,7.40
2022-10-03T03:45:33.198Z,7.30
2022-10-03T03:49:11.149Z,7.30
2022-10-03T03:52:24.011Z,7.30
2022-10-03T03:55:53.478Z,7.40
2022-10-03T03:59:01.330Z,7.40
2022-10-03T04:02:35.363Z,7.40
2022-10-03T04:05:18.401Z,7.50
2022-10-03T04:08:19.270Z,7.40
2022-10-03T04:11:18.914Z,7.40
2022-10-03T04:14:41.257Z,7.40
2022-10-03T04:17:50.298Z,7.30
2022-10-03T04:20:43.727Z,7.30
2022-10-03T04:24:02.821Z,7.20
2022-10-03T04:27:19.300Z,7.20
2022-10-03T04:30:36.526Z,7.00
2022-10-03T04:33:42.202Z,6.90
2022-10-03T04:36:25.962Z,6.80
2022-10-03T04:39:28.256Z,6.80
2022-10-03T04:42:41.026Z,6.80
2022-10-03T04:45:58.223Z,6.90
2022-10-03T04:52:31.243Z,7.20
2022-10-03T04:55:27.860Z,7.30
2022-10-03T04:58:24.170Z,7.40
2022-10-03T05:01:06.698Z,7.40
2022-10-03T05:04:34.333Z,7.40
2022-10-03T05:22:50.184Z,7.50
2022-10-03T05:25:41.414Z,7.60
2022-10-03T05:28:45.215Z,7.60
2022-10-03T05:31:33.860Z,7.60
2022-10-03T05:34:43.144Z,7.60
2022-10-03T05:38:05.811Z,7.70
2022-10-03T05:40:56.107Z,7.80
2022-10-03T05:44:22.134Z,7.80
2022-10-03T05:47:57.300Z,7.80
2022-10-03T05:50:59.886Z,7.90
2022-10-03T05:54:38.353Z,7.90
2022-10-03T05:57:44.307Z,7.90
2022-10-03T06:00:34.394Z,8.00
2022-10-03T06:03:32.577Z,8.00
2022-10-03T06:06:33.212Z,8.00
2022-10-03T06:09:39.992Z,8.10
2022-10-03T06:12:42.231Z,8.10
2022-10-03T06:15:57.149Z,8.10
2022-10-03T06:19:19.609Z,8.00
2022-10-03T06:23:05.940Z,8.10
2022-10-03T06:26:36.249Z,8.10
2022-10-03T06:29:54.546Z,8.10
2022-10-03T06:32:57.694Z,8.20
2022-10-03T06:36:34.047Z,8.20
2022-10-03T06:39:54.340Z,8.20
2022-10-03T06:47:12.380Z,8.30
2022-10-03T06:50:40.358Z,8.30
2022-10-03T06:53:43.354Z,8.30
2022-10-03T06:56:57.824Z,8.30
2022-10-03T07:01:16.866Z,8.30
2022-10-03T07:04:52.046Z,8.30
2022-10-03T07:08:32.718Z,8.20
2022-10-03T07:12:01.239Z,8.20
2022-10-03T07:14:46.561Z,8.20
2022-10-03T07:17:54.266Z,8.30
2022-10-03T07:21:32.473Z,8.40
2022-10-03T07:25:03.688Z,8.40
2022-10-03T07:28:33.688Z,8.50
2022-10-03T07:31:36.952Z,8.40
2022-10-03T07:35:55.317Z,8.50
2022-10-03T07:39:33.072Z,8.50
2022-10-03T07:42:50.294Z,8.70
2022-10-03T07:45:41.123Z,8.70
2022-10-03T07:49:11.491Z,8.80
2022-10-03T07:52:23.641Z,8.90
2022-10-03T07:55:35.259Z,9.00
2022-10-03T07:58:29.032Z,9.00
2022-10-03T08:01:54.510Z,9.10
2022-10-03T08:05:13.802Z,9.10
2022-10-03T08:08:59.184Z,9.40
2022-10-03T08:12:26.898Z,9.70
2022-10-03T08:15:28.479Z,10.00
2022-10-03T08:18:24.026Z,10.40
2022-10-03T08:21:21.381Z,10.50
2022-10-03T08:24:21.857Z,10.40
2022-10-03T08:27:51.378Z,10.00
2022-10-03T08:30:43.701Z,9.90
2022-10-03T08:33:48.558Z,9.90
2022-10-03T08:37:08.062Z,9.80
2022-10-03T08:40:27.114Z,9.70
2022-10-03T08:43:29.184Z,9.50
2022-10-03T08:46:44.680Z,9.40
2022-10-03T08:49:51.943Z,9.50
2022-10-03T08:53:09.426Z,9.70
2022-10-03T08:56:07.920Z,9.80
2022-10-03T08:59:04.149Z,9.90
2022-10-03T09:02:18.183Z,10.10
2022-10-03T09:05:42.275Z,10.40
2022-10-03T09:08:41.685Z,10.70
2022-10-03T09:11:36.475Z,11.00
2022-10-03T09:14:40.441Z,11.20
2022-10-03T09:18:00.297Z,11.30
2022-10-03T09:21:07.236Z,11.30
2022-10-03T09:24:14.294Z,11.50
2022-10-03T09:27:19.819Z,11.60
2022-10-03T09:30:43.305Z,11.70
2022-10-03T09:34:21.843Z,12.10
2022-10-03T09:37:11.664Z,12.60
2022-10-03T09:40:24.578Z,12.90
2022-10-03T09:43:45.367Z,13.00
2022-10-03T09:46:42.967Z,12.90
2022-10-03T09:49:48.309Z,12.60
2022-10-03T09:53:02.662Z,12.40
2022-10-03T09:55:47.402Z,12.30
2022-10-03T09:58:46.919Z,12.30
2022-10-03T10:01:46.501Z,12.00
2022-10-03T10:04:53.274Z,12.00
2022-10-03T10:08:26.264Z,11.90
2022-10-03T10:11:34.904Z,12.20
2022-10-03T10:14:46.340Z,12.40
2022-10-03T10:17:48.926Z,12.50
2022-10-03T10:20:50.215Z,12.40
2022-10-03T10:23:45.120Z,12.20
2022-10-03T10:27:15.231Z,12.10
2022-10-03T10:30:06.300Z,12.10
2022-10-03T10:33:17.351Z,12.20
2022-10-03T10:36:18.004Z,12.40
2022-10-03T10:39:38.280Z,12.30
2022-10-03T10:42:45.315Z,12.00
2022-10-03T10:46:04.318Z,11.80
2022-10-03T10:49:17.727Z,11.70
2022-10-03T10:52:13.309Z,11.80
2022-10-03T10:55:31.147Z,11.80
2022-10-03T10:58:45.272Z,11.80
2022-10-03T11:02:06.070Z,11.90
2022-10-03T11:05:30.542Z,12.80
2022-10-03T11:08:17.946Z,13.60
2022-10-03T11:11:58.349Z,14.10
2022-10-03T11:15:01.986Z,14.00
2022-10-03T11:17:48.328Z,13.40
2022-10-03T11:20:52.833Z,13.00
2022-10-03T11:24:36.376Z,12.70
2022-10-03T11:27:22.178Z,12.40
2022-10-03T11:30:14.260Z,12.00
2022-10-03T11:33:01.861Z,11.90
2022-10-03T11:35:56.257Z,11.80
2022-10-03T11:38:36.417Z,11.90
2022-10-03T11:41:48.279Z,11.90
2022-10-03T11:44:34.274Z,12.00
2022-10-03T11:47:50.441Z,12.10
2022-10-03T11:50:33.248Z,12.20
2022-10-03T11:53:47.300Z,12.30
2022-10-03T11:56:47.339Z,12.30
2022-10-03T11:59:39.297Z,12.30
2022-10-03T12:02:30.175Z,12.30
2022-10-03T12:05:30.618Z,12.30
2022-10-03T12:08:46.683Z,12.30
2022-10-03T12:11:47.298Z,12.20
2022-10-03T12:14:49.821Z,12.30
2022-10-03T12:17:49.019Z,12.40
2022-10-03T12:20:23.270Z,12.50
2022-10-03T12:23:25.593Z,12.50
2022-10-03T12:25:54.510Z,12.40
2022-10-03T12:28:37.428Z,12.40
2022-10-03T12:31:43.648Z,12.30
2022-10-03T12:35:38.571Z,12.30
2022-10-03T12:38:51.146Z,12.30
2022-10-03T12:42:02.627Z,12.50
2022-10-03T12:44:48.747Z,12.60
2022-10-03T12:47:56.180Z,12.70
2022-10-03T12:51:02.062Z,13.20
2022-10-03T12:53:59.449Z,14.00
2022-10-03T12:56:51.514Z,14.70
2022-10-03T13:00:10.512Z,15.30
2022-10-03T13:06:19.418Z,15.90
2022-10-03T13:09:11.423Z,16.30
2022-10-03T13:12:40.951Z,16.70
2022-10-03T13:15:48.241Z,16.90
2022-10-03T13:18:52.451Z,16.70
2022-10-03T13:21:55.800Z,16.40
2022-10-03T13:24:37.285Z,15.70
2022-10-03T13:27:32.592Z,15.10
2022-10-03T13:30:22.355Z,14.60
2022-10-03T13:33:19.340Z,14.20
2022-10-03T13:36:09.279Z,13.90
2022-10-03T13:39:11.442Z,13.70
2022-10-03T13:42:31.326Z,13.70
2022-10-03T13:45:21.327Z,14.00
2022-10-03T13:48:14.293Z,14.30
2022-10-03T13:50:52.975Z,14.40
2022-10-03T13:53:46.383Z,14.20
2022-10-03T13:57:03.208Z,13.90
2022-10-03T14:00:19.292Z,13.80
2022-10-03T14:03:17.499Z,13.70
2022-10-03T14:06:06.308Z,13.60
2022-10-03T14:09:26.165Z,14.00
2022-10-03T14:12:55.025Z,14.50
2022-10-03T14:15:50.628Z,14.90
2022-10-03T14:19:16.346Z,15.20
2022-10-03T14:22:38.352Z,15.20
2022-10-03T14:25:23.286Z,14.90
2022-10-03T14:28:17.247Z,14.50
2022-10-03T14:31:22.166Z,14.20
2022-10-03T14:33:58.786Z,13.90
2022-10-03T14:36:53.372Z,13.80
2022-10-03T14:39:39.721Z,13.70
2022-10-03T14:42:47.307Z,13.50
2022-10-03T14:45:18.931Z,13.40
2022-10-03T14:48:06.362Z,13.30
2022-10-03T14:50:39.223Z,13.30
2022-10-03T14:53:33.306Z,13.40
2022-10-03T14:56:11.812Z,13.40
2022-10-03T14:58:55.337Z,13.50
2022-10-03T15:01:28.748Z,13.60
2022-10-03T15:04:37.382Z,13.70
2022-10-03T15:07:06.406Z,13.70
2022-10-03T15:09:56.374Z,13.60
2022-10-03T15:12:31.261Z,13.40
2022-10-03T15:15:25.314Z,13.00
2022-10-03T15:17:56.855Z,12.90
2022-10-03T15:20:48.329Z,12.80
2022-10-03T15:23:39.926Z,12.80
2022-10-03T15:26:25.370Z,12.80
2022-10-03T15:28:59.802Z,12.80
2022-10-03T15:31:49.501Z,12.80
2022-10-03T15:34:33.255Z,12.70
2022-10-03T15:37:30.381Z,12.60
2022-10-03T15:40:04.339Z,12.50
2022-10-03T15:42:49.353Z,12.50
2022-10-03T15:45:29.492Z,12.50
2022-10-03T15:48:09.291Z,12.50
2022-10-03T15:50:43.625Z,12.50
2022-10-03T15:53:42.428Z,12.50
2022-10-03T15:56:46.244Z,12.50
2022-10-03T15:59:40.365Z,12.40
2022-10-03T16:02:20.128Z,12.30
2022-10-03T16:04:58.342Z,12.20
2022-10-03T16:08:03.326Z,12.20
2022-10-03T16:11:11.642Z,12.00
2022-10-03T16:13:53.502Z,11.90
2022-10-03T16:16:49.418Z,11.80
2022-10-03T16:19:45.659Z,11.60
2022-10-03T16:22:31.462Z,11.40
2022-10-03T16:25:39.378Z,11.10
2022-10-03T16:28:21.523Z,10.90
2022-10-03T16:30:58.587Z,10.60
2022-10-03T16:33:49.360Z,10.40
2022-10-03T16:36:21.798Z,10.20
2022-10-03T16:39:08.602Z,10.00
2022-10-03T16:41:44.157Z,9.90
2022-10-03T16:44:57.309Z,9.70
2022-10-03T16:47:36.566Z,9.60
